Alsen, North Dakota
Current Conditions -  °F | °C
As of 2:15 AM on Thursday 18 Dec 2014 (Local Time) from KD55 Reporting Station
Clear Clear  
Wind Chill: -9°   Ceiling: Unl
Heat Index:   Visibility: 10mi
Dew Point:   Wind: 9mph
Humidity: 78%   Direction: 170°S
Pressure: 30.2"   Gusts: NA
Location:  48.63°N, 98.7°W
Report Text: KD55 180815Z AUTO 17008KT 10SM CLR M15/M18 A3020 RMK AO2
Loading
Personal Weather Stations






























Interactive Weather Map New forecast layout! Learn more

10-Day Weather Forecast

Advertisements
Track Severe Weather on mobile